sensor_id;sensor_type;location;lat;lon;timestamp;P1;durP1;ratioP1;P2;durP2;ratioP2
42200;SDS011;27869;51.442;7.540;2022-12-05T00:00:23;26.20;;;10.85;;
42200;SDS011;27869;51.442;7.540;2022-12-05T00:02:50;29.33;;;11.32;;
42200;SDS011;27869;51.442;7.540;2022-12-05T00:05:19;27.48;;;11.40;;
42200;SDS011;27869;51.442;7.540;2022-12-05T00:07:46;25.90;;;11.02;;
42200;SDS011;27869;51.442;7.540;2022-12-05T00:10:12;26.35;;;11.90;;
42200;SDS011;27869;51.442;7.540;2022-12-05T00:12:39;30.10;;;12.15;;
42200;SDS011;27869;51.442;7.540;2022-12-05T00:15:07;26.63;;;11.55;;
42200;SDS011;27869;51.442;7.540;2022-12-05T00:17:36;27.20;;;11.75;;
42200;SDS011;27869;51.442;7.540;2022-12-05T00:20:05;31.77;;;12.38;;
42200;SDS011;27869;51.442;7.540;2022-12-05T00:22:35;26.73;;;11.40;;
42200;SDS011;27869;51.442;7.540;2022-12-05T00:25:03;29.02;;;12.02;;
42200;SDS011;27869;51.442;7.540;2022-12-05T00:27:31;25.98;;;10.88;;
42200;SDS011;27869;51.442;7.540;2022-12-05T00:29:58;27.20;;;11.07;;
42200;SDS011;27869;51.442;7.540;2022-12-05T00:32:27;26.73;;;11.50;;
42200;SDS011;27869;51.442;7.540;2022-12-05T00:34:54;27.55;;;10.85;;
42200;SDS011;27869;51.442;7.540;2022-12-05T00:37:21;25.45;;;10.32;;
42200;SDS011;27869;51.442;7.540;2022-12-05T00:39:50;27.77;;;11.68;;
42200;SDS011;27869;51.442;7.540;2022-12-05T00:42:17;28.27;;;11.27;;
42200;SDS011;27869;51.442;7.540;2022-12-05T00:44:43;25.85;;;11.40;;
42200;SDS011;27869;51.442;7.540;2022-12-05T00:47:10;28.55;;;11.57;;
42200;SDS011;27869;51.442;7.540;2022-12-05T00:49:37;30.63;;;12.57;;
42200;SDS011;27869;51.442;7.540;2022-12-05T00:52:04;30.90;;;11.88;;
42200;SDS011;27869;51.442;7.540;2022-12-05T00:54:31;26.77;;;11.55;;
42200;SDS011;27869;51.442;7.540;2022-12-05T00:56:59;28.08;;;11.27;;
42200;SDS011;27869;51.442;7.540;2022-12-05T00:59:26;27.40;;;12.18;;
42200;SDS011;27869;51.442;7.540;2022-12-05T01:01:53;28.48;;;12.50;;
42200;SDS011;27869;51.442;7.540;2022-12-05T01:04:21;30.67;;;11.88;;
42200;SDS011;27869;51.442;7.540;2022-12-05T01:06:52;28.65;;;11.35;;
42200;SDS011;27869;51.442;7.540;2022-12-05T01:09:20;27.42;;;11.68;;
42200;SDS011;27869;51.442;7.540;2022-12-05T01:11:48;28.35;;;12.20;;
42200;SDS011;27869;51.442;7.540;2022-12-05T01:14:17;31.13;;;12.65;;
42200;SDS011;27869;51.442;7.540;2022-12-05T01:16:46;29.27;;;11.32;;
42200;SDS011;27869;51.442;7.540;2022-12-05T01:19:16;28.67;;;11.55;;
42200;SDS011;27869;51.442;7.540;2022-12-05T01:21:44;24.35;;;10.52;;
42200;SDS011;27869;51.442;7.540;2022-12-05T01:24:11;29.77;;;11.75;;
42200;SDS011;27869;51.442;7.540;2022-12-05T01:26:39;28.13;;;11.13;;
42200;SDS011;27869;51.442;7.540;2022-12-05T01:29:06;27.58;;;11.13;;
42200;SDS011;27869;51.442;7.540;2022-12-05T01:31:36;26.35;;;10.93;;
42200;SDS011;27869;51.442;7.540;2022-12-05T01:34:05;26.70;;;10.55;;
42200;SDS011;27869;51.442;7.540;2022-12-05T01:36:35;24.70;;;10.20;;
42200;SDS011;27869;51.442;7.540;2022-12-05T01:39:03;25.33;;;10.45;;
42200;SDS011;27869;51.442;7.540;2022-12-05T01:41:31;26.58;;;10.98;;
42200;SDS011;27869;51.442;7.540;2022-12-05T01:44:00;27.73;;;11.68;;
42200;SDS011;27869;51.442;7.540;2022-12-05T01:46:29;24.70;;;11.13;;
42200;SDS011;27869;51.442;7.540;2022-12-05T01:49:00;26.30;;;10.65;;
42200;SDS011;27869;51.442;7.540;2022-12-05T01:51:30;24.00;;;10.20;;
42200;SDS011;27869;51.442;7.540;2022-12-05T01:53:59;25.27;;;11.20;;
42200;SDS011;27869;51.442;7.540;2022-12-05T01:56:26;26.65;;;10.95;;
42200;SDS011;27869;51.442;7.540;2022-12-05T01:58:54;26.98;;;10.82;;
42200;SDS011;27869;51.442;7.540;2022-12-05T02:01:21;25.17;;;11.05;;
42200;SDS011;27869;51.442;7.540;2022-12-05T02:03:49;26.17;;;10.95;;
42200;SDS011;27869;51.442;7.540;2022-12-05T02:06:22;23.20;;;10.50;;
42200;SDS011;27869;51.442;7.540;2022-12-05T02:08:51;25.42;;;10.77;;
42200;SDS011;27869;51.442;7.540;2022-12-05T02:11:22;26.88;;;10.80;;
42200;SDS011;27869;51.442;7.540;2022-12-05T02:14:01;26.73;;;11.35;;
42200;SDS011;27869;51.442;7.540;2022-12-05T02:16:47;28.40;;;10.52;;
42200;SDS011;27869;51.442;7.540;2022-12-05T02:19:36;24.77;;;11.38;;
42200;SDS011;27869;51.442;7.540;2022-12-05T02:29:03;25.98;;;10.82;;
42200;SDS011;27869;51.442;7.540;2022-12-05T02:34:22;26.98;;;9.93;;
42200;SDS011;27869;51.442;7.540;2022-12-05T02:36:55;25.33;;;10.90;;
42200;SDS011;27869;51.442;7.540;2022-12-05T02:39:28;26.95;;;10.75;;
42200;SDS011;27869;51.442;7.540;2022-12-05T02:42:03;26.20;;;9.02;;
42200;SDS011;27869;51.442;7.540;2022-12-05T02:44:36;25.67;;;10.45;;
42200;SDS011;27869;51.442;7.540;2022-12-05T02:47:07;24.70;;;10.43;;
42200;SDS011;27869;51.442;7.540;2022-12-05T02:49:35;26.00;;;10.57;;
42200;SDS011;27869;51.442;7.540;2022-12-05T02:52:10;27.40;;;10.75;;
42200;SDS011;27869;51.442;7.540;2022-12-05T02:54:40;22.05;;;9.60;;
42200;SDS011;27869;51.442;7.540;2022-12-05T02:57:09;25.88;;;11.70;;
42200;SDS011;27869;51.442;7.540;2022-12-05T02:59:37;24.33;;;10.40;;
42200;SDS011;27869;51.442;7.540;2022-12-05T03:02:04;25.98;;;10.70;;
42200;SDS011;27869;51.442;7.540;2022-12-05T03:04:34;26.17;;;10.55;;
42200;SDS011;27869;51.442;7.540;2022-12-05T03:07:02;28.77;;;11.05;;
42200;SDS011;27869;51.442;7.540;2022-12-05T03:09:33;28.67;;;10.65;;
42200;SDS011;27869;51.442;7.540;2022-12-05T03:12:04;27.13;;;11.52;;
42200;SDS011;27869;51.442;7.540;2022-12-05T03:14:36;26.85;;;10.48;;
42200;SDS011;27869;51.442;7.540;2022-12-05T03:17:08;25.40;;;10.73;;
42200;SDS011;27869;51.442;7.540;2022-12-05T03:19:43;29.48;;;10.88;;
42200;SDS011;27869;51.442;7.540;2022-12-05T03:22:17;29.95;;;11.05;;
42200;SDS011;27869;51.442;7.540;2022-12-05T03:24:50;28.85;;;11.68;;
42200;SDS011;27869;51.442;7.540;2022-12-05T03:27:20;30.23;;;11.32;;
42200;SDS011;27869;51.442;7.540;2022-12-05T03:29:53;26.67;;;10.50;;
42200;SDS011;27869;51.442;7.540;2022-12-05T03:32:23;28.88;;;10.27;;
42200;SDS011;27869;51.442;7.540;2022-12-05T03:35:00;27.83;;;11.15;;
42200;SDS011;27869;51.442;7.540;2022-12-05T03:37:34;26.65;;;11.40;;
42200;SDS011;27869;51.442;7.540;2022-12-05T03:40:10;28.20;;;10.65;;
42200;SDS011;27869;51.442;7.540;2022-12-05T03:42:48;26.63;;;11.05;;
42200;SDS011;27869;51.442;7.540;2022-12-05T03:45:21;30.23;;;10.73;;
42200;SDS011;27869;51.442;7.540;2022-12-05T03:47:55;23.77;;;10.43;;
42200;SDS011;27869;51.442;7.540;2022-12-05T03:50:28;28.23;;;10.63;;
42200;SDS011;27869;51.442;7.540;2022-12-05T03:52:55;24.80;;;9.93;;
42200;SDS011;27869;51.442;7.540;2022-12-05T03:55:26;23.52;;;10.63;;
42200;SDS011;27869;51.442;7.540;2022-12-05T03:57:57;25.05;;;10.32;;
42200;SDS011;27869;51.442;7.540;2022-12-05T04:02:56;24.33;;;10.13;;
42200;SDS011;27869;51.442;7.540;2022-12-05T04:05:31;27.90;;;11.00;;
42200;SDS011;27869;51.442;7.540;2022-12-05T04:08:03;26.77;;;10.85;;
42200;SDS011;27869;51.442;7.540;2022-12-05T04:10:33;27.02;;;10.40;;
42200;SDS011;27869;51.442;7.540;2022-12-05T04:13:14;23.45;;;10.27;;
42200;SDS011;27869;51.442;7.540;2022-12-05T04:15:47;25.50;;;10.75;;
42200;SDS011;27869;51.442;7.540;2022-12-05T04:18:37;25.60;;;10.25;;
42200;SDS011;27869;51.442;7.540;2022-12-05T04:21:11;22.88;;;10.10;;
42200;SDS011;27869;51.442;7.540;2022-12-05T04:23:57;23.85;;;9.95;;
42200;SDS011;27869;51.442;7.540;2022-12-05T04:26:42;21.80;;;9.57;;
42200;SDS011;27869;51.442;7.540;2022-12-05T04:29:14;22.58;;;10.02;;
42200;SDS011;27869;51.442;7.540;2022-12-05T04:31:47;26.45;;;10.05;;
42200;SDS011;27869;51.442;7.540;2022-12-05T04:34:16;22.30;;;9.68;;
42200;SDS011;27869;51.442;7.540;2022-12-05T04:36:48;24.63;;;10.18;;
42200;SDS011;27869;51.442;7.540;2022-12-05T04:39:20;23.35;;;9.80;;
42200;SDS011;27869;51.442;7.540;2022-12-05T04:41:51;23.60;;;10.40;;
42200;SDS011;27869;51.442;7.540;2022-12-05T04:44:21;22.65;;;9.88;;
42200;SDS011;27869;51.442;7.540;2022-12-05T04:46:51;23.45;;;9.88;;
42200;SDS011;27869;51.442;7.540;2022-12-05T04:49:20;25.25;;;10.10;;
42200;SDS011;27869;51.442;7.540;2022-12-05T04:51:51;23.75;;;10.30;;
42200;SDS011;27869;51.442;7.540;2022-12-05T04:54:21;24.17;;;9.27;;
42200;SDS011;27869;51.442;7.540;2022-12-05T04:56:53;23.88;;;8.88;;
42200;SDS011;27869;51.442;7.540;2022-12-05T04:59:26;23.25;;;10.32;;
42200;SDS011;27869;51.442;7.540;2022-12-05T05:01:54;24.63;;;9.68;;
42200;SDS011;27869;51.442;7.540;2022-12-05T05:04:26;24.15;;;9.65;;
42200;SDS011;27869;51.442;7.540;2022-12-05T05:06:58;24.95;;;9.75;;
42200;SDS011;27869;51.442;7.540;2022-12-05T05:09:29;20.98;;;9.45;;
42200;SDS011;27869;51.442;7.540;2022-12-05T05:11:56;23.08;;;10.48;;
42200;SDS011;27869;51.442;7.540;2022-12-05T05:14:23;25.13;;;9.68;;
42200;SDS011;27869;51.442;7.540;2022-12-05T05:16:50;21.85;;;9.88;;
42200;SDS011;27869;51.442;7.540;2022-12-05T05:19:17;24.67;;;9.45;;
42200;SDS011;27869;51.442;7.540;2022-12-05T05:21:44;23.38;;;8.57;;
42200;SDS011;27869;51.442;7.540;2022-12-05T05:24:14;20.25;;;8.55;;
42200;SDS011;27869;51.442;7.540;2022-12-05T05:26:42;22.05;;;8.48;;
42200;SDS011;27869;51.442;7.540;2022-12-05T05:31:38;21.80;;;8.75;;
42200;SDS011;27869;51.442;7.540;2022-12-05T05:34:06;19.92;;;7.88;;
42200;SDS011;27869;51.442;7.540;2022-12-05T05:36:34;19.95;;;8.50;;
42200;SDS011;27869;51.442;7.540;2022-12-05T05:39:02;19.60;;;8.30;;
42200;SDS011;27869;51.442;7.540;2022-12-05T05:41:32;20.67;;;8.45;;
42200;SDS011;27869;51.442;7.540;2022-12-05T05:44:02;18.45;;;8.40;;
42200;SDS011;27869;51.442;7.540;2022-12-05T05:46:30;22.30;;;8.05;;
42200;SDS011;27869;51.442;7.540;2022-12-05T05:48:58;18.23;;;8.13;;
42200;SDS011;27869;51.442;7.540;2022-12-05T05:51:25;18.58;;;8.10;;
42200;SDS011;27869;51.442;7.540;2022-12-05T05:53:54;22.08;;;8.25;;
42200;SDS011;27869;51.442;7.540;2022-12-05T05:56:21;18.63;;;8.40;;
42200;SDS011;27869;51.442;7.540;2022-12-05T05:58:54;20.75;;;8.18;;
42200;SDS011;27869;51.442;7.540;2022-12-05T06:01:22;18.40;;;8.25;;
42200;SDS011;27869;51.442;7.540;2022-12-05T06:03:49;18.52;;;7.60;;
42200;SDS011;27869;51.442;7.540;2022-12-05T06:06:16;18.27;;;7.88;;
42200;SDS011;27869;51.442;7.540;2022-12-05T06:08:45;20.00;;;6.82;;
42200;SDS011;27869;51.442;7.540;2022-12-05T06:11:13;17.15;;;7.80;;
42200;SDS011;27869;51.442;7.540;2022-12-05T06:13:41;19.70;;;7.95;;
42200;SDS011;27869;51.442;7.540;2022-12-05T06:16:10;21.92;;;8.18;;
42200;SDS011;27869;51.442;7.540;2022-12-05T06:18:39;21.80;;;8.15;;
42200;SDS011;27869;51.442;7.540;2022-12-05T06:21:06;16.88;;;7.32;;
42200;SDS011;27869;51.442;7.540;2022-12-05T06:23:34;18.50;;;7.95;;
42200;SDS011;27869;51.442;7.540;2022-12-05T06:26:02;20.30;;;7.80;;
42200;SDS011;27869;51.442;7.540;2022-12-05T06:28:30;18.73;;;7.75;;
42200;SDS011;27869;51.442;7.540;2022-12-05T06:30:57;17.48;;;7.57;;
42200;SDS011;27869;51.442;7.540;2022-12-05T06:33:27;19.27;;;7.60;;
42200;SDS011;27869;51.442;7.540;2022-12-05T06:36:00;16.83;;;7.03;;
42200;SDS011;27869;51.442;7.540;2022-12-05T06:38:29;18.90;;;7.53;;
42200;SDS011;27869;51.442;7.540;2022-12-05T06:40:55;19.10;;;7.25;;
42200;SDS011;27869;51.442;7.540;2022-12-05T06:43:22;16.80;;;7.03;;
42200;SDS011;27869;51.442;7.540;2022-12-05T06:45:49;15.98;;;6.78;;
42200;SDS011;27869;51.442;7.540;2022-12-05T06:48:16;17.13;;;6.40;;
42200;SDS011;27869;51.442;7.540;2022-12-05T06:50:48;16.38;;;6.95;;
42200;SDS011;27869;51.442;7.540;2022-12-05T06:53:15;16.00;;;6.82;;
42200;SDS011;27869;51.442;7.540;2022-12-05T06:55:42;16.08;;;6.55;;
42200;SDS011;27869;51.442;7.540;2022-12-05T06:58:09;18.42;;;6.72;;
42200;SDS011;27869;51.442;7.540;2022-12-05T07:00:36;17.27;;;7.45;;
42200;SDS011;27869;51.442;7.540;2022-12-05T07:03:20;17.17;;;6.72;;
42200;SDS011;27869;51.442;7.540;2022-12-05T07:05:48;17.77;;;6.75;;
42200;SDS011;27869;51.442;7.540;2022-12-05T07:08:15;18.90;;;6.97;;
42200;SDS011;27869;51.442;7.540;2022-12-05T07:10:48;17.80;;;6.72;;
42200;SDS011;27869;51.442;7.540;2022-12-05T07:13:16;18.85;;;7.03;;
42200;SDS011;27869;51.442;7.540;2022-12-05T07:15:44;16.65;;;6.50;;
42200;SDS011;27869;51.442;7.540;2022-12-05T07:18:11;14.85;;;6.20;;
42200;SDS011;27869;51.442;7.540;2022-12-05T07:20:38;16.10;;;6.40;;
42200;SDS011;27869;51.442;7.540;2022-12-05T07:23:07;15.27;;;5.50;;
42200;SDS011;27869;51.442;7.540;2022-12-05T07:25:37;15.18;;;5.57;;
42200;SDS011;27869;51.442;7.540;2022-12-05T07:28:04;14.57;;;5.93;;
42200;SDS011;27869;51.442;7.540;2022-12-05T07:30:31;16.10;;;6.05;;
42200;SDS011;27869;51.442;7.540;2022-12-05T07:32:59;15.23;;;5.50;;
42200;SDS011;27869;51.442;7.540;2022-12-05T07:35:25;16.30;;;6.32;;
42200;SDS011;27869;51.442;7.540;2022-12-05T07:37:52;14.23;;;5.43;;
42200;SDS011;27869;51.442;7.540;2022-12-05T07:40:21;15.02;;;4.82;;
42200;SDS011;27869;51.442;7.540;2022-12-05T07:42:48;14.20;;;5.38;;
42200;SDS011;27869;51.442;7.540;2022-12-05T07:45:15;13.85;;;5.88;;
42200;SDS011;27869;51.442;7.540;2022-12-05T07:47:42;14.85;;;5.80;;
42200;SDS011;27869;51.442;7.540;2022-12-05T07:50:09;13.98;;;5.30;;
42200;SDS011;27869;51.442;7.540;2022-12-05T07:52:36;14.07;;;5.07;;
42200;SDS011;27869;51.442;7.540;2022-12-05T07:55:03;13.57;;;4.55;;
42200;SDS011;27869;51.442;7.540;2022-12-05T07:57:32;14.90;;;5.38;;
42200;SDS011;27869;51.442;7.540;2022-12-05T07:59:59;13.80;;;5.18;;
42200;SDS011;27869;51.442;7.540;2022-12-05T08:02:26;13.20;;;4.38;;
42200;SDS011;27869;51.442;7.540;2022-12-05T08:04:53;12.68;;;4.40;;
42200;SDS011;27869;51.442;7.540;2022-12-05T08:07:20;13.30;;;5.15;;
42200;SDS011;27869;51.442;7.540;2022-12-05T08:09:46;12.02;;;3.90;;
42200;SDS011;27869;51.442;7.540;2022-12-05T08:12:13;12.50;;;4.72;;
42200;SDS011;27869;51.442;7.540;2022-12-05T08:14:42;12.40;;;4.40;;
42200;SDS011;27869;51.442;7.540;2022-12-05T08:17:08;12.73;;;4.47;;
42200;SDS011;27869;51.442;7.540;2022-12-05T08:19:35;11.80;;;4.45;;
42200;SDS011;27869;51.442;7.540;2022-12-05T08:22:02;12.52;;;4.45;;
42200;SDS011;27869;51.442;7.540;2022-12-05T08:24:29;11.18;;;4.07;;
42200;SDS011;27869;51.442;7.540;2022-12-05T08:26:56;13.70;;;4.90;;
42200;SDS011;27869;51.442;7.540;2022-12-05T08:29:23;12.32;;;4.63;;
42200;SDS011;27869;51.442;7.540;2022-12-05T08:31:51;13.20;;;4.45;;
42200;SDS011;27869;51.442;7.540;2022-12-05T08:34:19;12.15;;;4.03;;
42200;SDS011;27869;51.442;7.540;2022-12-05T08:36:46;12.15;;;4.20;;
42200;SDS011;27869;51.442;7.540;2022-12-05T08:39:13;12.50;;;3.78;;
42200;SDS011;27869;51.442;7.540;2022-12-05T08:41:43;12.43;;;4.55;;
42200;SDS011;27869;51.442;7.540;2022-12-05T08:44:11;12.18;;;4.60;;
42200;SDS011;27869;51.442;7.540;2022-12-05T08:46:40;13.35;;;4.40;;
42200;SDS011;27869;51.442;7.540;2022-12-05T08:49:10;12.23;;;4.22;;
42200;SDS011;27869;51.442;7.540;2022-12-05T08:51:37;13.32;;;4.63;;
42200;SDS011;27869;51.442;7.540;2022-12-05T08:54:05;11.80;;;4.28;;
42200;SDS011;27869;51.442;7.540;2022-12-05T08:56:32;12.38;;;4.57;;
42200;SDS011;27869;51.442;7.540;2022-12-05T08:58:59;12.07;;;4.30;;
42200;SDS011;27869;51.442;7.540;2022-12-05T09:01:27;11.98;;;4.10;;
42200;SDS011;27869;51.442;7.540;2022-12-05T09:03:56;13.18;;;4.55;;
42200;SDS011;27869;51.442;7.540;2022-12-05T09:06:26;11.93;;;3.80;;
42200;SDS011;27869;51.442;7.540;2022-12-05T09:08:54;12.23;;;4.55;;
42200;SDS011;27869;51.442;7.540;2022-12-05T09:11:23;11.70;;;4.70;;
42200;SDS011;27869;51.442;7.540;2022-12-05T09:13:52;13.02;;;4.63;;
42200;SDS011;27869;51.442;7.540;2022-12-05T09:16:20;12.80;;;4.25;;
42200;SDS011;27869;51.442;7.540;2022-12-05T09:18:49;12.95;;;4.40;;
42200;SDS011;27869;51.442;7.540;2022-12-05T09:21:17;13.10;;;5.20;;
42200;SDS011;27869;51.442;7.540;2022-12-05T09:26:15;12.57;;;4.72;;
42200;SDS011;27869;51.442;7.540;2022-12-05T09:28:43;13.30;;;4.00;;
42200;SDS011;27869;51.442;7.540;2022-12-05T09:31:11;11.63;;;3.75;;
42200;SDS011;27869;51.442;7.540;2022-12-05T09:33:39;12.55;;;4.53;;
42200;SDS011;27869;51.442;7.540;2022-12-05T09:36:07;13.43;;;4.93;;
42200;SDS011;27869;51.442;7.540;2022-12-05T09:38:37;11.65;;;4.50;;
42200;SDS011;27869;51.442;7.540;2022-12-05T09:41:07;10.98;;;3.95;;
42200;SDS011;27869;51.442;7.540;2022-12-05T09:43:42;12.35;;;4.90;;
42200;SDS011;27869;51.442;7.540;2022-12-05T09:46:20;12.52;;;4.85;;
42200;SDS011;27869;51.442;7.540;2022-12-05T09:48:57;13.73;;;4.63;;
42200;SDS011;27869;51.442;7.540;2022-12-05T09:51:25;14.18;;;4.65;;
42200;SDS011;27869;51.442;7.540;2022-12-05T09:53:52;14.20;;;4.72;;
42200;SDS011;27869;51.442;7.540;2022-12-05T09:56:22;12.43;;;4.90;;
42200;SDS011;27869;51.442;7.540;2022-12-05T09:58:52;13.63;;;4.93;;
42200;SDS011;27869;51.442;7.540;2022-12-05T10:01:25;13.38;;;5.07;;
42200;SDS011;27869;51.442;7.540;2022-12-05T10:04:02;16.95;;;5.60;;
42200;SDS011;27869;51.442;7.540;2022-12-05T10:06:46;14.90;;;5.55;;
42200;SDS011;27869;51.442;7.540;2022-12-05T10:12:02;13.38;;;4.47;;
42200;SDS011;27869;51.442;7.540;2022-12-05T10:14:41;13.60;;;5.30;;
42200;SDS011;27869;51.442;7.540;2022-12-05T10:17:20;15.02;;;6.10;;
42200;SDS011;27869;51.442;7.540;2022-12-05T10:19:50;15.18;;;5.70;;
42200;SDS011;27869;51.442;7.540;2022-12-05T10:22:21;14.45;;;5.40;;
42200;SDS011;27869;51.442;7.540;2022-12-05T10:24:52;15.80;;;5.10;;
42200;SDS011;27869;51.442;7.540;2022-12-05T10:27:26;15.57;;;6.25;;
42200;SDS011;27869;51.442;7.540;2022-12-05T10:29:58;15.65;;;6.00;;
42200;SDS011;27869;51.442;7.540;2022-12-05T10:32:30;16.20;;;5.45;;
42200;SDS011;27869;51.442;7.540;2022-12-05T10:35:08;16.40;;;5.63;;
42200;SDS011;27869;51.442;7.540;2022-12-05T10:37:41;14.85;;;5.57;;
42200;SDS011;27869;51.442;7.540;2022-12-05T10:40:11;13.07;;;5.53;;
42200;SDS011;27869;51.442;7.540;2022-12-05T10:42:40;15.07;;;5.45;;
42200;SDS011;27869;51.442;7.540;2022-12-05T10:45:12;16.70;;;5.50;;
42200;SDS011;27869;51.442;7.540;2022-12-05T10:47:41;12.80;;;4.82;;
42200;SDS011;27869;51.442;7.540;2022-12-05T10:50:16;12.60;;;4.97;;
42200;SDS011;27869;51.442;7.540;2022-12-05T10:52:50;13.43;;;5.13;;
42200;SDS011;27869;51.442;7.540;2022-12-05T10:55:19;12.48;;;5.25;;
42200;SDS011;27869;51.442;7.540;2022-12-05T10:57:49;15.32;;;5.72;;
42200;SDS011;27869;51.442;7.540;2022-12-05T11:00:21;12.65;;;5.00;;
42200;SDS011;27869;51.442;7.540;2022-12-05T11:02:55;16.77;;;5.50;;
42200;SDS011;27869;51.442;7.540;2022-12-05T11:05:26;14.13;;;5.40;;
42200;SDS011;27869;51.442;7.540;2022-12-05T11:07:55;16.52;;;5.25;;
42200;SDS011;27869;51.442;7.540;2022-12-05T11:10:24;12.65;;;4.50;;
42200;SDS011;27869;51.442;7.540;2022-12-05T11:13:00;14.27;;;5.47;;
42200;SDS011;27869;51.442;7.540;2022-12-05T11:15:39;14.20;;;5.53;;
42200;SDS011;27869;51.442;7.540;2022-12-05T11:18:18;13.20;;;5.15;;
42200;SDS011;27869;51.442;7.540;2022-12-05T11:20:52;15.13;;;6.10;;
42200;SDS011;27869;51.442;7.540;2022-12-05T11:23:23;14.75;;;5.78;;
42200;SDS011;27869;51.442;7.540;2022-12-05T11:25:52;12.93;;;5.50;;
42200;SDS011;27869;51.442;7.540;2022-12-05T11:31:18;13.32;;;5.40;;
42200;SDS011;27869;51.442;7.540;2022-12-05T11:33:57;14.70;;;5.88;;
42200;SDS011;27869;51.442;7.540;2022-12-05T11:36:30;13.52;;;5.43;;
42200;SDS011;27869;51.442;7.540;2022-12-05T11:39:04;14.13;;;5.57;;
42200;SDS011;27869;51.442;7.540;2022-12-05T11:41:36;13.95;;;6.07;;
42200;SDS011;27869;51.442;7.540;2022-12-05T11:44:17;13.02;;;5.72;;
42200;SDS011;27869;51.442;7.540;2022-12-05T11:47:03;15.20;;;5.55;;
42200;SDS011;27869;51.442;7.540;2022-12-05T11:49:47;16.20;;;6.57;;
42200;SDS011;27869;51.442;7.540;2022-12-05T11:52:31;12.75;;;5.53;;
42200;SDS011;27869;51.442;7.540;2022-12-05T11:55:13;16.60;;;6.07;;
42200;SDS011;27869;51.442;7.540;2022-12-05T11:57:47;13.65;;;5.63;;
42200;SDS011;27869;51.442;7.540;2022-12-05T12:00:36;13.98;;;5.82;;
42200;SDS011;27869;51.442;7.540;2022-12-05T12:03:34;13.70;;;6.03;;
42200;SDS011;27869;51.442;7.540;2022-12-05T12:06:19;13.02;;;5.32;;
42200;SDS011;27869;51.442;7.540;2022-12-05T12:11:28;11.50;;;4.32;;
42200;SDS011;27869;51.442;7.540;2022-12-05T12:14:00;11.88;;;5.07;;
42200;SDS011;27869;51.442;7.540;2022-12-05T12:16:38;12.27;;;5.13;;
42200;SDS011;27869;51.442;7.540;2022-12-05T12:22:28;12.30;;;4.93;;
42200;SDS011;27869;51.442;7.540;2022-12-05T12:25:15;13.07;;;4.70;;
42200;SDS011;27869;51.442;7.540;2022-12-05T12:27:51;11.88;;;5.00;;
42200;SDS011;27869;51.442;7.540;2022-12-05T12:30:31;11.90;;;5.28;;
42200;SDS011;27869;51.442;7.540;2022-12-05T12:33:10;13.35;;;4.75;;
42200;SDS011;27869;51.442;7.540;2022-12-05T12:35:43;13.25;;;5.43;;
42200;SDS011;27869;51.442;7.540;2022-12-05T12:38:22;13.15;;;5.60;;
42200;SDS011;27869;51.442;7.540;2022-12-05T12:40:59;13.82;;;4.65;;
42200;SDS011;27869;51.442;7.540;2022-12-05T12:43:37;14.05;;;5.38;;
42200;SDS011;27869;51.442;7.540;2022-12-05T12:46:18;13.65;;;5.72;;
42200;SDS011;27869;51.442;7.540;2022-12-05T12:49:00;13.35;;;5.15;;
42200;SDS011;27869;51.442;7.540;2022-12-05T12:51:45;15.40;;;5.75;;
42200;SDS011;27869;51.442;7.540;2022-12-05T12:54:19;12.70;;;4.93;;
42200;SDS011;27869;51.442;7.540;2022-12-05T12:57:05;14.57;;;5.60;;
42200;SDS011;27869;51.442;7.540;2022-12-05T12:59:46;15.93;;;6.38;;
42200;SDS011;27869;51.442;7.540;2022-12-05T13:02:25;13.20;;;6.13;;
42200;SDS011;27869;51.442;7.540;2022-12-05T13:05:01;14.75;;;6.15;;
42200;SDS011;27869;51.442;7.540;2022-12-05T13:07:35;16.35;;;7.03;;
42200;SDS011;27869;51.442;7.540;2022-12-05T13:10:05;16.67;;;7.68;;
42200;SDS011;27869;51.442;7.540;2022-12-05T13:12:42;17.08;;;7.70;;
42200;SDS011;27869;51.442;7.540;2022-12-05T13:15:12;15.75;;;7.35;;
42200;SDS011;27869;51.442;7.540;2022-12-05T13:17:42;12.60;;;5.40;;
42200;SDS011;27869;51.442;7.540;2022-12-05T13:22:41;19.15;;;8.65;;
42200;SDS011;27869;51.442;7.540;2022-12-05T13:25:12;16.85;;;6.63;;
42200;SDS011;27869;51.442;7.540;2022-12-05T13:27:40;16.33;;;6.63;;
42200;SDS011;27869;51.442;7.540;2022-12-05T13:30:19;16.80;;;7.60;;
42200;SDS011;27869;51.442;7.540;2022-12-05T13:32:46;18.08;;;7.60;;
42200;SDS011;27869;51.442;7.540;2022-12-05T13:35:26;18.13;;;7.30;;
42200;SDS011;27869;51.442;7.540;2022-12-05T13:38:20;17.17;;;7.35;;
42200;SDS011;27869;51.442;7.540;2022-12-05T13:41:10;18.98;;;8.00;;
42200;SDS011;27869;51.442;7.540;2022-12-05T13:43:54;15.45;;;6.35;;
42200;SDS011;27869;51.442;7.540;2022-12-05T13:46:23;18.80;;;7.55;;
42200;SDS011;27869;51.442;7.540;2022-12-05T13:48:57;18.77;;;8.35;;
42200;SDS011;27869;51.442;7.540;2022-12-05T13:51:31;17.80;;;8.20;;
42200;SDS011;27869;51.442;7.540;2022-12-05T13:54:02;17.27;;;7.35;;
42200;SDS011;27869;51.442;7.540;2022-12-05T13:56:45;20.90;;;8.45;;
42200;SDS011;27869;51.442;7.540;2022-12-05T14:11:19;19.00;;;8.52;;
42200;SDS011;27869;51.442;7.540;2022-12-05T14:13:46;18.85;;;8.15;;
42200;SDS011;27869;51.442;7.540;2022-12-05T14:22:06;18.48;;;8.07;;
42200;SDS011;27869;51.442;7.540;2022-12-05T14:24:51;17.13;;;7.60;;
42200;SDS011;27869;51.442;7.540;2022-12-05T14:27:30;18.98;;;8.27;;
42200;SDS011;27869;51.442;7.540;2022-12-05T14:30:16;17.90;;;6.70;;
42200;SDS011;27869;51.442;7.540;2022-12-05T14:32:48;19.67;;;8.10;;
42200;SDS011;27869;51.442;7.540;2022-12-05T14:35:18;18.88;;;8.73;;
42200;SDS011;27869;51.442;7.540;2022-12-05T14:37:50;20.95;;;10.02;;
42200;SDS011;27869;51.442;7.540;2022-12-05T14:40:20;19.70;;;9.45;;
42200;SDS011;27869;51.442;7.540;2022-12-05T14:42:56;17.27;;;8.98;;
42200;SDS011;27869;51.442;7.540;2022-12-05T14:45:32;18.17;;;7.82;;
42200;SDS011;27869;51.442;7.540;2022-12-05T14:48:02;20.42;;;8.68;;
42200;SDS011;27869;51.442;7.540;2022-12-05T14:50:35;18.73;;;9.27;;
42200;SDS011;27869;51.442;7.540;2022-12-05T14:53:13;19.35;;;9.32;;
42200;SDS011;27869;51.442;7.540;2022-12-05T14:55:55;19.20;;;8.52;;
42200;SDS011;27869;51.442;7.540;2022-12-05T14:58:32;21.65;;;9.50;;
42200;SDS011;27869;51.442;7.540;2022-12-05T15:01:07;18.73;;;8.70;;
42200;SDS011;27869;51.442;7.540;2022-12-05T15:03:40;19.35;;;8.77;;
42200;SDS011;27869;51.442;7.540;2022-12-05T15:06:13;17.63;;;8.05;;
42200;SDS011;27869;51.442;7.540;2022-12-05T15:08:43;19.15;;;8.63;;
42200;SDS011;27869;51.442;7.540;2022-12-05T15:11:13;16.20;;;7.68;;
42200;SDS011;27869;51.442;7.540;2022-12-05T15:13:53;15.90;;;7.60;;
42200;SDS011;27869;51.442;7.540;2022-12-05T15:16:25;17.48;;;7.75;;
42200;SDS011;27869;51.442;7.540;2022-12-05T15:18:55;16.60;;;7.38;;
42200;SDS011;27869;51.442;7.540;2022-12-05T15:21:28;20.30;;;9.35;;
42200;SDS011;27869;51.442;7.540;2022-12-05T15:23:59;18.30;;;8.38;;
42200;SDS011;27869;51.442;7.540;2022-12-05T15:26:28;18.17;;;8.15;;
42200;SDS011;27869;51.442;7.540;2022-12-05T15:29:02;17.52;;;7.75;;
42200;SDS011;27869;51.442;7.540;2022-12-05T15:31:32;17.80;;;8.30;;
42200;SDS011;27869;51.442;7.540;2022-12-05T15:34:03;20.65;;;9.32;;
42200;SDS011;27869;51.442;7.540;2022-12-05T15:36:33;17.50;;;8.38;;
42200;SDS011;27869;51.442;7.540;2022-12-05T15:39:03;19.73;;;9.63;;
42200;SDS011;27869;51.442;7.540;2022-12-05T15:41:31;20.65;;;9.18;;
42200;SDS011;27869;51.442;7.540;2022-12-05T15:43:58;18.52;;;9.07;;